createdAt,value
2019-03-23T00:02:05.326Z,67.30
2019-03-23T00:04:34.357Z,64.45
2019-03-23T00:07:03.359Z,63.58
2019-03-23T00:09:32.284Z,67.20
2019-03-23T00:12:01.229Z,63.90
2019-03-23T00:14:30.151Z,69.75
2019-03-23T00:16:59.114Z,69.40
2019-03-23T00:19:28.125Z,62.60
2019-03-23T00:21:57.122Z,67.32
2019-03-23T00:24:26.046Z,68.33
2019-03-23T00:26:54.970Z,66.77
2019-03-23T00:29:23.902Z,65.80
2019-03-23T00:31:52.920Z,60.98
2019-03-23T00:34:21.839Z,67.43
2019-03-23T00:36:50.948Z,55.90
2019-03-23T00:39:19.938Z,63.63
2019-03-23T00:41:48.915Z,58.20
2019-03-23T00:44:17.886Z,62.20
2019-03-23T00:46:46.889Z,59.90
2019-03-23T00:49:15.837Z,59.38
2019-03-23T00:51:44.832Z,63.20
2019-03-23T00:54:13.865Z,55.55
2019-03-23T00:56:42.772Z,60.48
2019-03-23T00:59:11.711Z,57.10
2019-03-23T01:01:40.665Z,59.93
2019-03-23T01:04:09.625Z,61.63
2019-03-23T01:06:38.511Z,60.00
2019-03-23T01:09:08.021Z,60.45
2019-03-23T01:11:36.939Z,63.25
2019-03-23T01:14:05.911Z,62.85
2019-03-23T01:16:34.854Z,62.83
2019-03-23T01:19:03.713Z,61.48
2019-03-23T01:21:32.643Z,61.40
2019-03-23T01:24:01.632Z,66.40
2019-03-23T01:26:30.561Z,61.83
2019-03-23T01:28:59.581Z,63.87
2019-03-23T01:31:28.519Z,63.68
2019-03-23T01:33:57.607Z,63.85
2019-03-23T01:36:26.649Z,61.15
2019-03-23T01:38:55.598Z,61.75
2019-03-23T01:41:24.554Z,64.58
2019-03-23T01:43:53.526Z,66.87
2019-03-23T01:46:22.498Z,62.45
2019-03-23T01:48:51.446Z,71.72
2019-03-23T01:51:20.445Z,64.42
2019-03-23T01:53:49.365Z,61.15
2019-03-23T01:56:18.311Z,64.70
2019-03-23T01:58:47.249Z,60.85
2019-03-23T02:01:16.309Z,53.17
2019-03-23T02:03:45.302Z,58.17
2019-03-23T02:06:14.219Z,58.35
2019-03-23T02:08:43.167Z,59.18
2019-03-23T02:11:12.093Z,57.83
2019-03-23T02:13:41.032Z,59.90
2019-03-23T02:16:09.994Z,64.47
2019-03-23T02:18:38.947Z,54.83
2019-03-23T02:21:07.891Z,55.78
2019-03-23T02:23:36.918Z,56.02
2019-03-23T02:26:05.831Z,59.27
2019-03-23T02:28:34.777Z,57.08
2019-03-23T02:31:03.715Z,51.08
2019-03-23T02:33:32.711Z,56.15
2019-03-23T02:36:01.635Z,52.38
2019-03-23T02:38:30.596Z,48.80
2019-03-23T02:40:59.511Z,53.17
2019-03-23T02:43:28.531Z,48.52
2019-03-23T02:45:57.460Z,49.40
2019-03-23T02:48:26.461Z,48.98
2019-03-23T02:50:56.449Z,49.48
2019-03-23T02:53:25.380Z,55.78
2019-03-23T02:55:54.416Z,53.98
2019-03-23T02:58:23.394Z,55.35
2019-03-23T03:00:52.445Z,60.30
2019-03-23T03:03:21.394Z,62.33
2019-03-23T03:05:50.327Z,64.30
2019-03-23T03:08:19.328Z,57.80
2019-03-23T03:10:48.248Z,65.57
2019-03-23T03:13:17.149Z,62.20
2019-03-23T03:15:46.086Z,64.32
2019-03-23T03:18:15.984Z,69.42
2019-03-23T03:20:44.982Z,66.60
2019-03-23T03:23:13.894Z,60.23
2019-03-23T03:25:42.900Z,61.48
2019-03-23T03:28:11.797Z,60.38
2019-03-23T03:30:40.760Z,61.02
2019-03-23T03:33:10.733Z,58.87
2019-03-23T03:35:39.719Z,59.95
2019-03-23T03:38:08.699Z,60.92
2019-03-23T03:40:37.653Z,57.03
2019-03-23T03:43:06.593Z,59.63
2019-03-23T03:45:35.577Z,62.67
2019-03-23T03:48:04.538Z,61.90
2019-03-23T03:50:33.455Z,60.50
2019-03-23T03:53:02.479Z,61.88
2019-03-23T03:55:31.476Z,60.05
2019-03-23T03:58:00.487Z,59.55
2019-03-23T04:00:30.618Z,59.48
2019-03-23T04:02:59.558Z,63.28
2019-03-23T04:05:28.496Z,61.18
2019-03-23T04:08:10.389Z,66.05
2019-03-23T04:10:28.136Z,56.48
2019-03-23T04:12:57.116Z,62.93
2019-03-23T04:15:26.041Z,58.33
2019-03-23T04:17:54.952Z,58.40
2019-03-23T04:20:23.908Z,60.15
2019-03-23T04:22:52.881Z,62.03
2019-03-23T04:25:22.945Z,67.35
2019-03-23T04:27:51.851Z,70.52
2019-03-23T04:30:20.803Z,76.67
2019-03-23T04:32:49.777Z,76.30
2019-03-23T04:35:18.781Z,75.40
2019-03-23T04:37:47.731Z,71.80
2019-03-23T04:40:16.732Z,74.05
2019-03-23T04:42:45.781Z,79.45
2019-03-23T04:45:14.738Z,73.65
2019-03-23T04:47:43.681Z,75.32
2019-03-23T04:50:12.630Z,76.02
2019-03-23T04:52:41.579Z,82.47
2019-03-23T04:55:10.820Z,80.50
2019-03-23T04:57:40.235Z,80.80
2019-03-23T05:00:11.243Z,89.25
2019-03-23T05:02:40.274Z,82.17
2019-03-23T05:05:09.290Z,81.87
2019-03-23T05:07:38.340Z,83.05
2019-03-23T05:10:07.394Z,76.75
2019-03-23T05:12:36.351Z,83.22
2019-03-23T05:15:05.521Z,84.03
2019-03-23T05:17:34.552Z,89.75
2019-03-23T05:20:04.026Z,83.95
2019-03-23T05:22:32.946Z,88.78
2019-03-23T05:25:01.918Z,87.75
2019-03-23T05:27:30.838Z,79.22
2019-03-23T05:29:59.754Z,83.92
2019-03-23T05:32:28.741Z,70.72
2019-03-23T05:34:57.710Z,75.78
2019-03-23T05:37:26.652Z,73.65
2019-03-23T05:39:55.576Z,78.20
2019-03-23T05:42:25.574Z,71.70
2019-03-23T05:44:54.497Z,76.50
2019-03-23T05:47:23.440Z,74.95
2019-03-23T05:49:52.364Z,68.60
2019-03-23T05:52:21.290Z,72.27
2019-03-23T05:54:50.197Z,76.50
2019-03-23T05:57:19.940Z,71.60
2019-03-23T05:59:48.972Z,72.60
2019-03-23T06:02:17.922Z,73.67
2019-03-23T06:04:46.858Z,80.65
2019-03-23T06:07:15.819Z,74.17
2019-03-23T06:09:44.778Z,83.90
2019-03-23T06:12:13.764Z,77.65
2019-03-23T06:14:42.734Z,80.28
2019-03-23T06:17:11.851Z,79.47
2019-03-23T06:19:40.837Z,82.37
2019-03-23T06:22:12.186Z,83.25
2019-03-23T06:24:40.494Z,78.15
2019-03-23T06:27:09.438Z,81.75
2019-03-23T06:29:38.423Z,78.50
2019-03-23T06:32:07.379Z,76.72
2019-03-23T06:34:36.372Z,75.30
2019-03-23T06:37:06.402Z,74.77
2019-03-23T06:39:35.335Z,69.12
2019-03-23T06:42:04.304Z,72.05
2019-03-23T06:44:33.750Z,68.60
2019-03-23T06:47:02.757Z,72.25
2019-03-23T06:49:31.664Z,69.87
2019-03-23T06:52:00.674Z,68.52
2019-03-23T06:54:29.681Z,68.42
2019-03-23T06:56:58.597Z,71.82
2019-03-23T06:59:27.524Z,73.50
2019-03-23T07:01:57.575Z,72.92
2019-03-23T07:04:26.888Z,78.17
2019-03-23T07:06:55.897Z,77.90
2019-03-23T07:09:24.899Z,75.00
2019-03-23T07:11:53.838Z,74.53
2019-03-23T07:14:22.769Z,74.42
2019-03-23T07:16:51.691Z,74.58
2019-03-23T07:19:20.651Z,70.22
2019-03-23T07:21:49.578Z,75.35
2019-03-23T07:24:18.640Z,73.47
2019-03-23T07:26:47.617Z,84.72
2019-03-23T07:29:16.606Z,72.62
2019-03-23T07:31:45.644Z,78.17
2019-03-23T07:34:14.603Z,76.75
2019-03-23T07:36:43.571Z,83.15
2019-03-23T07:39:12.590Z,75.03
2019-03-23T07:41:41.529Z,78.57
2019-03-23T07:44:10.514Z,76.30
2019-03-23T07:46:39.521Z,77.40
2019-03-23T07:49:08.510Z,73.97
2019-03-23T07:51:37.557Z,77.58
2019-03-23T07:54:06.605Z,73.57
2019-03-23T07:56:35.670Z,77.17
2019-03-23T07:59:04.752Z,77.03
2019-03-23T08:01:33.749Z,73.67
2019-03-23T08:04:02.720Z,78.87
2019-03-23T08:06:31.667Z,76.12
2019-03-23T08:09:00.602Z,76.33
2019-03-23T08:11:29.786Z,78.42
2019-03-23T08:13:58.729Z,75.57
2019-03-23T08:16:27.725Z,77.97
2019-03-23T08:18:56.703Z,80.25
2019-03-23T08:21:25.749Z,77.82
2019-03-23T08:23:54.738Z,77.92
2019-03-23T08:26:24.628Z,71.22
2019-03-23T08:28:54.729Z,77.08
2019-03-23T08:31:23.679Z,74.70
2019-03-23T08:33:52.697Z,76.72
2019-03-23T08:36:21.666Z,76.22
2019-03-23T08:38:51.754Z,69.27
2019-03-23T08:41:20.728Z,73.12
2019-03-23T08:43:49.720Z,74.22
2019-03-23T08:46:19.757Z,73.72
2019-03-23T08:48:48.748Z,70.57
2019-03-23T08:51:17.701Z,69.40
2019-03-23T08:53:49.756Z,68.25
2019-03-23T08:56:18.791Z,71.95
2019-03-23T08:58:48.804Z,67.53
2019-03-23T09:01:17.954Z,71.47
2019-03-23T09:03:52.491Z,69.47
2019-03-23T09:06:17.582Z,70.35
2019-03-23T09:08:46.570Z,69.17
2019-03-23T09:11:20.473Z,70.65
2019-03-23T09:13:46.164Z,73.20
2019-03-23T09:16:15.142Z,74.32
2019-03-23T09:18:44.170Z,71.53
2019-03-23T09:21:13.106Z,74.42
2019-03-23T09:23:42.095Z,70.12
2019-03-23T09:26:11.098Z,68.42
2019-03-23T09:28:40.030Z,72.50
2019-03-23T09:31:08.984Z,70.70
2019-03-23T09:33:38.355Z,75.80
2019-03-23T09:36:07.431Z,68.42
2019-03-23T09:38:36.521Z,75.40
2019-03-23T09:41:05.462Z,72.10
2019-03-23T09:43:34.368Z,75.20
2019-03-23T09:46:03.421Z,65.33
2019-03-23T09:48:32.468Z,76.15
2019-03-23T09:51:01.520Z,74.47
2019-03-23T09:53:30.583Z,75.00
2019-03-23T09:55:59.522Z,68.50
2019-03-23T09:58:28.582Z,73.50
2019-03-23T10:00:57.611Z,67.25
2019-03-23T10:03:27.660Z,66.62
2019-03-23T10:05:56.634Z,69.80
2019-03-23T10:08:25.647Z,68.57
2019-03-23T10:10:54.795Z,67.82
2019-03-23T10:13:23.804Z,70.65
2019-03-23T10:15:52.784Z,71.82
2019-03-23T10:18:21.734Z,72.00
2019-03-23T10:20:50.712Z,69.20
2019-03-23T10:23:19.656Z,67.10
2019-03-23T10:25:48.670Z,67.15
2019-03-23T10:28:18.204Z,69.27
2019-03-23T10:30:47.383Z,72.95
2019-03-23T10:33:16.317Z,72.87
2019-03-23T10:35:45.345Z,72.47
2019-03-23T10:38:14.268Z,74.05
2019-03-23T10:40:43.293Z,68.42
2019-03-23T10:43:18.470Z,70.28
2019-03-23T10:45:47.681Z,71.97
2019-03-23T10:48:16.835Z,68.92
2019-03-23T10:50:45.846Z,69.92
2019-03-23T10:53:22.854Z,64.37
2019-03-23T10:55:45.481Z,65.50
2019-03-23T10:58:14.484Z,62.17
2019-03-23T11:00:43.483Z,67.20
2019-03-23T11:03:13.524Z,70.05
2019-03-23T11:05:42.640Z,65.67
2019-03-23T11:08:11.643Z,66.70
2019-03-23T11:10:41.983Z,64.22
2019-03-23T11:13:11.240Z,71.65
2019-03-23T11:15:40.338Z,64.85
2019-03-23T11:18:09.381Z,65.97
2019-03-23T11:20:39.444Z,64.40
2019-03-23T11:23:09.344Z,66.02
2019-03-23T11:25:38.313Z,65.75
2019-03-23T11:28:07.248Z,65.40
2019-03-23T11:30:36.236Z,67.50
2019-03-23T11:33:05.256Z,64.70
2019-03-23T11:35:34.191Z,65.05
2019-03-23T11:38:03.166Z,64.77
2019-03-23T11:40:32.191Z,64.85
2019-03-23T11:43:01.179Z,67.57
2019-03-23T11:45:30.143Z,66.33
2019-03-23T11:47:59.076Z,64.00
2019-03-23T11:50:28.167Z,65.00
2019-03-23T11:52:57.191Z,68.95
2019-03-23T11:55:26.340Z,62.05
2019-03-23T11:57:55.288Z,70.55
2019-03-23T12:00:24.330Z,61.90
2019-03-23T12:02:53.276Z,67.92
2019-03-23T12:05:23.299Z,63.70
2019-03-23T12:07:52.340Z,64.82
2019-03-23T12:10:21.356Z,69.12
2019-03-23T12:12:50.348Z,69.40
2019-03-23T12:15:19.349Z,64.47
2019-03-23T12:17:48.285Z,66.72
2019-03-23T12:20:17.367Z,63.40
2019-03-23T12:22:46.413Z,70.35
2019-03-23T12:25:15.499Z,64.12
2019-03-23T12:27:44.511Z,61.50
2019-03-23T12:30:14.258Z,56.55
2019-03-23T12:32:43.274Z,61.77
2019-03-23T12:35:12.462Z,56.13
2019-03-23T12:37:41.629Z,55.92
2019-03-23T12:40:10.852Z,51.80
2019-03-23T12:42:39.916Z,56.60
2019-03-23T12:45:09.794Z,51.37
2019-03-23T12:47:38.686Z,52.15
2019-03-23T12:50:08.042Z,52.30
2019-03-23T12:52:37.003Z,50.77
2019-03-23T12:55:06.405Z,44.63
2019-03-23T12:57:35.447Z,54.95
2019-03-23T13:00:05.614Z,48.17
2019-03-23T13:02:34.639Z,46.57
2019-03-23T13:05:05.382Z,41.75
2019-03-23T13:07:34.342Z,42.17
2019-03-23T13:10:03.334Z,36.93
2019-03-23T13:12:33.348Z,38.38
2019-03-23T13:15:02.392Z,31.42
2019-03-23T13:17:31.374Z,29.98
2019-03-23T13:20:00.490Z,29.67
2019-03-23T13:22:29.556Z,29.42
2019-03-23T13:24:58.560Z,28.10
2019-03-23T13:27:27.595Z,22.80
2019-03-23T13:29:56.542Z,23.62
2019-03-23T13:32:25.520Z,18.30
2019-03-23T13:34:54.502Z,22.02
2019-03-23T13:37:23.453Z,18.32
2019-03-23T13:39:52.496Z,24.82
2019-03-23T13:42:21.452Z,19.05
2019-03-23T13:44:50.680Z,14.70
2019-03-23T13:47:19.712Z,11.55
2019-03-23T13:49:48.653Z,10.65
2019-03-23T13:52:17.617Z,13.85
2019-03-23T13:54:46.630Z,8.83
2019-03-23T13:57:15.988Z,10.63
2019-03-23T13:59:45.057Z,11.50
2019-03-23T14:02:14.969Z,7.70
2019-03-23T14:04:43.908Z,10.30
2019-03-23T14:07:12.915Z,7.50
2019-03-23T14:09:42.717Z,9.98
2019-03-23T14:12:11.626Z,8.55
2019-03-23T14:14:40.603Z,9.15
2019-03-23T14:17:12.629Z,10.75
2019-03-23T14:19:43.476Z,10.88
2019-03-23T14:22:12.496Z,10.35
2019-03-23T14:24:41.494Z,12.20
2019-03-23T14:27:10.509Z,6.70
2019-03-23T14:29:39.477Z,7.80
2019-03-23T14:32:08.447Z,7.17
2019-03-23T14:34:37.481Z,3.72
2019-03-23T14:37:06.569Z,8.68
2019-03-23T14:39:35.502Z,11.70
2019-03-23T14:42:05.252Z,5.37
2019-03-23T14:44:34.444Z,8.83
2019-03-23T14:47:03.490Z,8.88
2019-03-23T14:49:32.398Z,8.50
2019-03-23T14:52:01.359Z,9.00
2019-03-23T14:54:30.263Z,9.78
2019-03-23T14:56:59.272Z,7.47
2019-03-23T14:59:28.271Z,10.20
2019-03-23T15:01:58.420Z,8.80
2019-03-23T15:04:27.406Z,10.45
2019-03-23T15:06:56.331Z,6.15
2019-03-23T15:09:28.112Z,9.13
2019-03-23T15:11:57.202Z,6.67
2019-03-23T15:14:26.375Z,9.75
2019-03-23T15:16:55.502Z,9.83
2019-03-23T15:19:24.459Z,8.98
2019-03-23T15:21:53.430Z,10.50
2019-03-23T15:24:23.477Z,10.70
2019-03-23T15:26:52.545Z,7.22
2019-03-23T15:29:21.513Z,6.55
2019-03-23T15:31:50.432Z,8.73
2019-03-23T15:34:19.395Z,4.45
2019-03-23T15:36:48.360Z,7.17
2019-03-23T15:39:17.357Z,7.08
2019-03-23T15:41:46.290Z,7.62
2019-03-23T15:44:17.213Z,7.78
2019-03-23T15:46:45.903Z,8.30
2019-03-23T15:49:14.894Z,13.03
2019-03-23T15:51:43.815Z,12.40
2019-03-23T15:54:12.845Z,13.98
2019-03-23T15:56:41.779Z,11.68
2019-03-23T15:59:10.738Z,8.48
2019-03-23T16:01:39.745Z,8.83
2019-03-23T16:04:10.940Z,7.00
2019-03-23T16:06:39.889Z,13.70
2019-03-23T16:09:08.819Z,8.45
2019-03-23T16:11:37.751Z,9.38
2019-03-23T16:14:06.734Z,10.78
2019-03-23T16:16:35.683Z,14.65
2019-03-23T16:19:04.765Z,9.60
2019-03-23T16:21:33.724Z,11.40
2019-03-23T16:24:02.688Z,7.05
2019-03-23T16:26:31.874Z,9.30
2019-03-23T16:29:00.918Z,7.37
2019-03-23T16:31:29.946Z,8.55
2019-03-23T16:33:58.954Z,11.57
2019-03-23T16:36:27.888Z,12.25
2019-03-23T16:38:56.967Z,10.65
2019-03-23T16:41:26.058Z,12.95
2019-03-23T16:43:55.062Z,8.60
2019-03-23T16:46:24.100Z,4.75
2019-03-23T16:48:53.058Z,7.08
2019-03-23T16:51:22.038Z,10.28
2019-03-23T16:53:51.146Z,10.68
2019-03-23T16:56:20.184Z,8.85
2019-03-23T16:58:49.172Z,10.93
2019-03-23T17:01:18.461Z,12.00
2019-03-23T17:03:48.993Z,9.85
2019-03-23T17:06:18.048Z,10.35
2019-03-23T17:08:47.502Z,10.05
2019-03-23T17:11:16.440Z,10.60
2019-03-23T17:13:45.397Z,6.08
2019-03-23T17:16:14.377Z,9.85
2019-03-23T17:18:43.979Z,15.43
2019-03-23T17:21:13.766Z,10.63
2019-03-23T17:23:45.695Z,12.80
2019-03-23T17:26:14.947Z,9.88
2019-03-23T17:28:43.949Z,10.43
2019-03-23T17:31:12.866Z,10.85
2019-03-23T17:33:42.982Z,9.93
2019-03-23T17:36:11.985Z,13.18
2019-03-23T17:38:40.943Z,8.90
2019-03-23T17:41:10.447Z,10.63
2019-03-23T17:43:42.710Z,12.18
2019-03-23T17:46:11.655Z,9.10
2019-03-23T17:48:40.587Z,10.78
2019-03-23T17:51:09.644Z,12.43
2019-03-23T17:53:39.530Z,11.85
2019-03-23T17:56:08.482Z,11.18
2019-03-23T17:58:37.407Z,17.98
2019-03-23T18:01:06.587Z,10.32
2019-03-23T18:03:36.787Z,13.30
2019-03-23T18:06:05.784Z,12.68
2019-03-23T18:08:35.412Z,9.13
2019-03-23T18:11:04.396Z,12.88
2019-03-23T18:13:33.366Z,9.35
2019-03-23T18:16:02.321Z,9.58
2019-03-23T18:18:31.250Z,11.88
2019-03-23T18:21:00.208Z,8.88
2019-03-23T18:23:29.168Z,12.05
2019-03-23T18:25:58.100Z,11.85
2019-03-23T18:28:27.049Z,8.15
2019-03-23T18:30:56.104Z,7.67
2019-03-23T18:33:25.071Z,10.75
2019-03-23T18:35:54.134Z,10.70
2019-03-23T18:38:23.201Z,6.22
2019-03-23T18:40:52.193Z,9.30
2019-03-23T18:43:27.574Z,11.60
2019-03-23T18:45:51.957Z,9.45
2019-03-23T18:48:20.911Z,8.85
2019-03-23T18:50:49.949Z,13.65
2019-03-23T18:53:20.048Z,11.65
2019-03-23T18:55:49.073Z,12.40
2019-03-23T18:58:18.151Z,9.93
2019-03-23T19:00:47.255Z,8.40
2019-03-23T19:03:16.183Z,11.80
2019-03-23T19:05:45.158Z,12.63
2019-03-23T19:08:14.215Z,7.37
2019-03-23T19:10:43.187Z,11.35
2019-03-23T19:13:12.877Z,12.18
2019-03-23T19:15:41.975Z,11.65
2019-03-23T19:18:10.933Z,16.07
2019-03-23T19:20:40.015Z,8.28
2019-03-23T19:23:08.979Z,7.40
2019-03-23T19:25:38.087Z,11.48
2019-03-23T19:28:07.200Z,8.43
2019-03-23T19:30:36.156Z,12.13
2019-03-23T19:33:06.333Z,8.73
2019-03-23T19:35:35.429Z,8.50
2019-03-23T19:38:04.446Z,8.23
2019-03-23T19:40:33.419Z,15.20
2019-03-23T19:43:02.375Z,9.80
2019-03-23T19:45:32.465Z,12.43
2019-03-23T19:48:01.478Z,8.60
2019-03-23T19:50:30.527Z,10.60
2019-03-23T19:52:59.542Z,9.63
2019-03-23T19:55:28.525Z,10.63
2019-03-23T19:57:57.485Z,11.48
2019-03-23T20:00:26.441Z,11.63
2019-03-23T20:02:55.387Z,15.40
2019-03-23T20:05:24.306Z,10.28
2019-03-23T20:07:53.340Z,11.15
2019-03-23T20:10:22.298Z,12.15
2019-03-23T20:12:51.291Z,13.80
2019-03-23T20:15:20.444Z,12.23
2019-03-23T20:17:49.466Z,11.57
2019-03-23T20:20:20.002Z,12.20
2019-03-23T20:22:49.218Z,12.10
2019-03-23T20:25:18.208Z,9.30
2019-03-23T20:27:47.201Z,11.68
2019-03-23T20:30:16.418Z,12.88
2019-03-23T20:32:45.531Z,9.88
2019-03-23T20:35:14.531Z,12.93
2019-03-23T20:37:43.465Z,8.75
2019-03-23T20:40:13.435Z,12.73
2019-03-23T20:42:43.912Z,17.92
2019-03-23T20:45:14.507Z,17.45
2019-03-23T20:47:43.668Z,16.85
2019-03-23T20:50:12.778Z,15.70
2019-03-23T20:52:42.723Z,13.60
2019-03-23T20:55:15.187Z,16.15
2019-03-23T20:57:44.219Z,14.43
2019-03-23T21:00:13.330Z,12.75
2019-03-23T21:02:43.184Z,14.25
2019-03-23T21:05:12.262Z,15.63
2019-03-23T21:07:41.383Z,10.82
2019-03-23T21:10:10.442Z,14.90
2019-03-23T21:12:39.470Z,16.32
2019-03-23T21:15:08.651Z,15.18
2019-03-23T21:17:50.465Z,15.83
2019-03-23T21:20:08.342Z,14.73
2019-03-23T21:22:37.323Z,17.55
2019-03-23T21:25:06.678Z,14.73
2019-03-23T21:27:35.838Z,11.88
2019-03-23T21:30:06.178Z,18.17
2019-03-23T21:32:35.139Z,12.28
2019-03-23T21:35:04.117Z,16.37
2019-03-23T21:37:33.091Z,13.83
2019-03-23T21:40:02.057Z,17.60
2019-03-23T21:42:32.034Z,14.85
2019-03-23T21:45:01.048Z,15.55
2019-03-23T21:47:31.400Z,13.20
2019-03-23T21:50:00.391Z,10.58
2019-03-23T21:52:29.468Z,12.28
2019-03-23T21:54:58.407Z,11.50
2019-03-23T21:57:27.373Z,12.50
2019-03-23T21:59:56.796Z,18.15
2019-03-23T22:02:25.739Z,17.20
2019-03-23T22:04:54.654Z,11.75
2019-03-23T22:07:23.579Z,14.38
2019-03-23T22:09:52.541Z,14.63
2019-03-23T22:12:21.535Z,16.50
2019-03-23T22:14:50.525Z,12.60
2019-03-23T22:17:19.582Z,11.63
2019-03-23T22:19:48.573Z,11.73
2019-03-23T22:22:17.531Z,14.25
2019-03-23T22:24:46.438Z,15.98
2019-03-23T22:27:15.423Z,12.68
2019-03-23T22:29:45.676Z,10.38
2019-03-23T22:32:14.638Z,15.83
2019-03-23T22:34:43.566Z,16.77
2019-03-23T22:37:12.493Z,14.90
2019-03-23T22:39:41.419Z,13.95
2019-03-23T22:42:10.429Z,14.68
2019-03-23T22:44:39.362Z,13.13
2019-03-23T22:47:08.290Z,11.45
2019-03-23T22:49:37.291Z,15.93
2019-03-23T22:52:06.275Z,16.48
2019-03-23T22:54:35.234Z,14.95
2019-03-23T22:57:05.155Z,17.55
2019-03-23T22:59:34.096Z,14.58
2019-03-23T23:02:03.029Z,11.68
2019-03-23T23:04:31.975Z,15.18
2019-03-23T23:07:00.905Z,17.40
2019-03-23T23:09:29.856Z,20.00
2019-03-23T23:11:59.086Z,16.42
2019-03-23T23:14:28.072Z,13.15
2019-03-23T23:16:57.037Z,20.65
2019-03-23T23:19:25.992Z,14.28
2019-03-23T23:21:54.809Z,15.35
2019-03-23T23:24:23.740Z,14.78
2019-03-23T23:26:52.726Z,16.07
2019-03-23T23:29:21.655Z,15.53
2019-03-23T23:31:50.576Z,13.25
2019-03-23T23:34:19.568Z,17.65
2019-03-23T23:36:48.523Z,16.17
2019-03-23T23:39:17.483Z,15.95
2019-03-23T23:41:46.424Z,15.48
2019-03-23T23:44:15.379Z,15.32
2019-03-23T23:46:44.382Z,14.73
2019-03-23T23:49:14.394Z,13.38
2019-03-23T23:51:50.097Z,16.57
2019-03-23T23:54:13.998Z,17.27
2019-03-23T23:56:42.992Z,13.93
2019-03-23T23:59:11.986Z,19.30
